Time;durP1;ratioP1;P1;durP2;ratioP2;P2;SDS_P1;SDS_P2;PMS_P1;PMS_P2;Temp;Humidity;BMP_temperature;BMP_pressure;BME280_temperature;BME280_humidity;BME280_pressure;Samples;Min_cycle;Max_cycle;Signal;HPM_P1;HPM_P2
2023/09/25 00:01:02;;;;;;;42.33;40.83;;;;;;;;;;5013525;28;20216;-89
2023/09/25 00:03:28;;;;;;;42.17;40.63;;;;;;;;;;5031221;28;20199;-89
2023/09/25 00:05:57;;;;;;;42.60;40.90;;;;;;;;;;5027713;28;20192;-90
2023/09/25 00:08:23;;;;;;;41.63;40.13;;;;;;;;;;5025598;28;20192;-89
2023/09/25 00:10:49;;;;;;;42.30;40.80;;;;;;;;;;5029663;28;20747;-89
2023/09/25 00:13:15;;;;;;;42.27;40.77;;;;;;;;;;5037069;28;20218;-89
2023/09/25 00:15:42;;;;;;;43.37;41.77;;;;;;;;;;5037897;28;20337;-90
2023/09/25 00:18:08;;;;;;;44.83;43.03;;;;;;;;;;5038992;28;20211;-90
2023/09/25 00:20:34;;;;;;;45.67;44.07;;;;;;;;;;5021462;28;20220;-88
2023/09/25 00:23:00;;;;;;;47.77;45.63;;;;;;;;;;5039373;28;20211;-89
2023/09/25 00:25:28;;;;;;;45.07;43.37;;;;;;;;;;5039395;28;20216;-90
2023/09/25 00:27:54;;;;;;;46.67;44.97;;;;;;;;;;5038536;28;20246;-87
2023/09/25 00:30:20;;;;;;;47.70;45.80;;;;;;;;;;5020887;28;20355;-89
2023/09/25 00:32:48;;;;;;;45.03;43.33;;;;;;;;;;5038073;28;20291;-90
2023/09/25 00:35:14;;;;;;;42.67;41.17;;;;;;;;;;5038530;28;20226;-89
2023/09/25 00:37:40;;;;;;;42.17;40.67;;;;;;;;;;5030526;28;20184;-88
2023/09/25 00:40:14;;;;;;;41.77;39.97;;;;;;;;;;5015586;28;20215;-88
2023/09/25 00:42:41;;;;;;;40.43;39.03;;;;;;;;;;5036451;28;20179;-87
2023/09/25 00:45:08;;;;;;;40.77;39.27;;;;;;;;;;5019368;28;20246;-88
2023/09/25 00:47:34;;;;;;;38.37;36.97;;;;;;;;;;5021351;28;20185;-89
2023/09/25 00:50:00;;;;;;;39.93;38.43;;;;;;;;;;5037549;28;20231;-89
2023/09/25 00:52:26;;;;;;;37.90;36.50;;;;;;;;;;5036708;28;20190;-87
2023/09/25 00:54:52;;;;;;;38.63;37.13;;;;;;;;;;5018502;28;20274;-88
2023/09/25 00:57:19;;;;;;;38.17;36.77;;;;;;;;;;5030352;28;20195;-90
2023/09/25 00:59:45;;;;;;;38.73;37.23;;;;;;;;;;5037667;28;20227;-87
2023/09/25 01:02:11;;;;;;;37.20;35.80;;;;;;;;;;5038218;28;20184;-91
2023/09/25 01:04:38;;;;;;;36.83;35.33;;;;;;;;;;5038002;28;20198;-88
2023/09/25 01:07:04;;;;;;;39.47;37.97;;;;;;;;;;5029953;28;20649;-87
2023/09/25 01:09:30;;;;;;;39.50;37.80;;;;;;;;;;5021792;28;20183;-89
2023/09/25 01:11:56;;;;;;;39.67;38.27;;;;;;;;;;5017404;28;20218;-89
2023/09/25 01:14:24;;;;;;;39.80;38.27;;;;;;;;;;5016430;28;20562;-90
2023/09/25 01:16:50;;;;;;;38.73;37.23;;;;;;;;;;5038035;28;20187;-89
2023/09/25 01:19:16;;;;;;;37.57;36.10;;;;;;;;;;5037742;28;20175;-89
2023/09/25 01:21:44;;;;;;;37.63;36.30;;;;;;;;;;5019311;28;20209;-89
2023/09/25 01:24:10;;;;;;;37.17;35.77;;;;;;;;;;5037367;28;20219;-89
2023/09/25 01:26:36;;;;;;;38.17;36.77;;;;;;;;;;5036681;28;20246;-89
2023/09/25 01:29:02;;;;;;;37.53;36.23;;;;;;;;;;5018046;28;20194;-89
2023/09/25 01:31:29;;;;;;;36.73;35.30;;;;;;;;;;5033837;28;20734;-89
2023/09/25 01:33:55;;;;;;;37.10;35.70;;;;;;;;;;5020686;28;20186;-90
2023/09/25 01:36:21;;;;;;;37.20;35.60;;;;;;;;;;5042280;28;20194;-89
2023/09/25 01:38:47;;;;;;;37.20;35.73;;;;;;;;;;5025887;28;20213;-89
2023/09/25 01:41:14;;;;;;;36.93;35.53;;;;;;;;;;5043198;28;20206;-88
2023/09/25 01:43:41;;;;;;;37.07;35.77;;;;;;;;;;5033505;28;20189;-88
2023/09/25 01:46:07;;;;;;;36.50;35.17;;;;;;;;;;5025862;28;20194;-89
2023/09/25 01:48:33;;;;;;;34.27;32.97;;;;;;;;;;5025271;28;20195;-90
2023/09/25 01:50:59;;;;;;;36.87;35.47;;;;;;;;;;5029373;28;20213;-91
2023/09/25 01:53:25;;;;;;;37.43;35.97;;;;;;;;;;5028831;28;20239;-89
2023/09/25 01:55:51;;;;;;;37.83;36.43;;;;;;;;;;5027972;28;20188;-89
2023/09/25 01:58:17;;;;;;;34.03;32.73;;;;;;;;;;5031963;28;20178;-90
2023/09/25 02:00:43;;;;;;;35.77;34.37;;;;;;;;;;5018018;28;20213;-88
2023/09/25 02:03:09;;;;;;;34.53;33.23;;;;;;;;;;5036196;28;20185;-90
2023/09/25 02:05:35;;;;;;;36.83;35.23;;;;;;;;;;5036261;28;20190;-89
2023/09/25 02:08:01;;;;;;;36.53;35.23;;;;;;;;;;5019286;28;20185;-90
2023/09/25 02:10:27;;;;;;;35.83;34.53;;;;;;;;;;5036561;28;20220;-90
2023/09/25 02:12:53;;;;;;;37.30;35.90;;;;;;;;;;5037141;28;20213;-89
2023/09/25 02:15:19;;;;;;;35.93;34.63;;;;;;;;;;5038481;28;20190;-90
2023/09/25 02:17:45;;;;;;;40.20;38.67;;;;;;;;;;5040997;28;20190;-90
2023/09/25 02:20:17;;;;;;;39.67;38.17;;;;;;;;;;5045157;28;20221;-90
2023/09/25 02:22:44;;;;;;;36.67;35.27;;;;;;;;;;5052062;28;20298;-90
2023/09/25 02:25:11;;;;;;;39.30;38.00;;;;;;;;;;5054548;28;20182;-90
2023/09/25 02:27:39;;;;;;;38.80;37.40;;;;;;;;;;5058410;28;20175;-89
2023/09/25 02:30:09;;;;;;;38.93;37.43;;;;;;;;;;5046286;28;20751;-89
2023/09/25 02:32:36;;;;;;;38.97;37.50;;;;;;;;;;5040396;28;20174;-88
2023/09/25 02:35:02;;;;;;;40.47;38.90;;;;;;;;;;5054412;28;20183;-89
2023/09/25 02:37:30;;;;;;;40.77;39.33;;;;;;;;;;5022043;28;20195;-89
2023/09/25 02:39:56;;;;;;;40.50;39.00;;;;;;;;;;5038868;28;20204;-88
2023/09/25 02:42:22;;;;;;;41.47;39.97;;;;;;;;;;5039649;28;20209;-90
2023/09/25 02:44:48;;;;;;;39.97;38.47;;;;;;;;;;5039741;28;20341;-89
2023/09/25 02:47:14;;;;;;;38.07;36.67;;;;;;;;;;5026371;28;20198;-89
2023/09/25 02:49:40;;;;;;;38.40;37.00;;;;;;;;;;5029870;28;20210;-89
2023/09/25 02:52:07;;;;;;;38.07;36.47;;;;;;;;;;5038168;28;20706;-89
2023/09/25 02:54:33;;;;;;;35.53;34.23;;;;;;;;;;5038622;28;20187;-89
2023/09/25 02:56:59;;;;;;;39.33;37.93;;;;;;;;;;5035287;28;20209;-89
2023/09/25 02:59:25;;;;;;;38.30;36.90;;;;;;;;;;5019544;28;20186;-90
2023/09/25 03:01:51;;;;;;;37.93;36.47;;;;;;;;;;5037927;28;20229;-90
2023/09/25 03:04:17;;;;;;;34.87;33.47;;;;;;;;;;5038343;28;20608;-88
2023/09/25 03:06:43;;;;;;;35.90;34.50;;;;;;;;;;5038727;28;20186;-90
2023/09/25 03:09:09;;;;;;;34.90;33.57;;;;;;;;;;5020535;28;20189;-90
2023/09/25 03:11:35;;;;;;;37.07;35.47;;;;;;;;;;5039086;28;20295;-89
2023/09/25 03:14:01;;;;;;;35.27;33.73;;;;;;;;;;5013773;28;20234;-89
2023/09/25 03:16:27;;;;;;;36.27;34.77;;;;;;;;;;5031426;28;20187;-90
2023/09/25 03:18:53;;;;;;;35.17;33.87;;;;;;;;;;5021392;28;20205;-88
2023/09/25 03:21:19;;;;;;;38.07;36.67;;;;;;;;;;5038867;28;20213;-89
2023/09/25 03:23:46;;;;;;;38.63;37.20;;;;;;;;;;5022409;28;20551;-88
2023/09/25 03:26:20;;;;;;;39.07;37.67;;;;;;;;;;5039595;28;20214;-90
2023/09/25 03:28:46;;;;;;;38.47;37.07;;;;;;;;;;5039611;28;20189;-91
2023/09/25 03:31:13;;;;;;;39.00;37.70;;;;;;;;;;5044080;28;20282;-88
2023/09/25 03:33:42;;;;;;;38.83;37.40;;;;;;;;;;5039069;28;20664;-89
2023/09/25 03:36:08;;;;;;;39.40;38.00;;;;;;;;;;5039190;28;20265;-90
2023/09/25 03:38:35;;;;;;;38.70;36.93;;;;;;;;;;5039290;28;20175;-91
2023/09/25 03:41:01;;;;;;;38.47;36.87;;;;;;;;;;5030884;28;20220;-88
2023/09/25 03:43:27;;;;;;;39.23;37.73;;;;;;;;;;5039210;28;20185;-89
2023/09/25 03:45:53;;;;;;;38.67;37.17;;;;;;;;;;5009764;28;20664;-88
2023/09/25 03:48:19;;;;;;;38.37;36.80;;;;;;;;;;5023724;28;20740;-89
2023/09/25 03:50:45;;;;;;;37.17;35.83;;;;;;;;;;5033635;28;20203;-89
2023/09/25 03:53:11;;;;;;;36.90;35.60;;;;;;;;;;5031002;28;20189;-89
2023/09/25 03:55:40;;;;;;;39.37;38.07;;;;;;;;;;5037137;28;20256;-89
2023/09/25 03:58:06;;;;;;;36.70;35.40;;;;;;;;;;5035957;28;20190;-90
2023/09/25 04:00:32;;;;;;;38.47;37.13;;;;;;;;;;5036940;28;20294;-89
2023/09/25 04:02:58;;;;;;;38.43;36.80;;;;;;;;;;5029936;28;20206;-89
2023/09/25 04:05:25;;;;;;;37.33;35.93;;;;;;;;;;5030543;28;20207;-90
2023/09/25 04:07:51;;;;;;;38.87;37.57;;;;;;;;;;5027184;28;20216;-90
2023/09/25 04:10:18;;;;;;;38.63;37.23;;;;;;;;;;5032766;28;20206;-90
2023/09/25 04:12:45;;;;;;;38.33;36.83;;;;;;;;;;5040460;28;20475;-89
2023/09/25 04:15:13;;;;;;;37.87;36.57;;;;;;;;;;4946876;28;20241;-90
2023/09/25 04:17:39;;;;;;;37.97;36.57;;;;;;;;;;4996048;28;20235;-89
2023/09/25 04:20:08;;;;;;;38.50;36.87;;;;;;;;;;4999084;28;20533;-89
2023/09/25 04:22:37;;;;;;;37.83;36.53;;;;;;;;;;4997506;28;20182;-89
2023/09/25 04:25:08;;;;;;;37.87;36.33;;;;;;;;;;4996247;28;20197;-89
2023/09/25 04:27:35;;;;;;;37.63;36.23;;;;;;;;;;5000242;28;20250;-89
2023/09/25 04:30:02;;;;;;;39.37;37.77;;;;;;;;;;4978698;28;20222;-89
2023/09/25 04:32:28;;;;;;;35.97;34.53;;;;;;;;;;5002274;28;20232;-87
2023/09/25 04:34:54;;;;;;;36.00;34.50;;;;;;;;;;4979125;28;20194;-87
2023/09/25 04:37:20;;;;;;;35.43;34.07;;;;;;;;;;5003021;28;20198;-88
2023/09/25 04:39:46;;;;;;;37.40;36.00;;;;;;;;;;5015392;28;20210;-88
2023/09/25 04:42:13;;;;;;;34.63;33.30;;;;;;;;;;5015552;28;20203;-88
2023/09/25 04:44:40;;;;;;;33.33;32.03;;;;;;;;;;5010782;28;20204;-88
2023/09/25 04:47:06;;;;;;;32.43;30.93;;;;;;;;;;5000670;28;20201;-87
2023/09/25 04:49:32;;;;;;;31.00;29.80;;;;;;;;;;5000940;28;20587;-88
2023/09/25 04:51:58;;;;;;;35.03;33.53;;;;;;;;;;5006491;28;20218;-86
2023/09/25 04:54:24;;;;;;;35.43;34.00;;;;;;;;;;5004766;28;20254;-88
2023/09/25 04:56:50;;;;;;;32.03;30.73;;;;;;;;;;5004231;28;20218;-89
2023/09/25 04:59:16;;;;;;;35.47;33.67;;;;;;;;;;5031902;28;20193;-88
2023/09/25 05:01:42;;;;;;;33.93;32.63;;;;;;;;;;5001686;28;20218;-89
2023/09/25 05:04:09;;;;;;;36.00;34.60;;;;;;;;;;4982785;28;20197;-89
2023/09/25 05:06:35;;;;;;;32.90;31.50;;;;;;;;;;4997596;28;20316;-88
2023/09/25 05:09:02;;;;;;;33.10;31.67;;;;;;;;;;4996949;28;20190;-88
2023/09/25 05:11:28;;;;;;;36.40;35.00;;;;;;;;;;5012449;28;20224;-89
2023/09/25 05:13:54;;;;;;;35.53;34.13;;;;;;;;;;4996544;28;20205;-88
2023/09/25 05:16:20;;;;;;;35.63;34.23;;;;;;;;;;4997026;28;20201;-89
2023/09/25 05:18:46;;;;;;;41.30;39.60;;;;;;;;;;4997678;28;20282;-89
2023/09/25 05:21:12;;;;;;;34.83;33.30;;;;;;;;;;4999151;28;20249;-88
2023/09/25 05:23:38;;;;;;;35.63;34.00;;;;;;;;;;5006904;28;20205;-88
2023/09/25 05:26:04;;;;;;;33.27;31.97;;;;;;;;;;5003944;28;20731;-86
2023/09/25 05:28:30;;;;;;;34.80;33.30;;;;;;;;;;4997966;28;20190;-87
2023/09/25 05:30:56;;;;;;;34.90;33.50;;;;;;;;;;4997310;28;20235;-88
2023/09/25 05:33:22;;;;;;;32.50;31.20;;;;;;;;;;4984905;28;20725;-88
2023/09/25 05:35:49;;;;;;;37.37;35.80;;;;;;;;;;5003792;28;20190;-89
2023/09/25 05:38:15;;;;;;;35.10;33.37;;;;;;;;;;4995356;28;20216;-89
2023/09/25 05:40:41;;;;;;;34.80;33.40;;;;;;;;;;4995824;28;20285;-90
2023/09/25 05:43:07;;;;;;;34.10;32.70;;;;;;;;;;4994519;28;20190;-88
2023/09/25 05:45:33;;;;;;;34.60;33.20;;;;;;;;;;4994873;28;20239;-88
2023/09/25 05:47:59;;;;;;;36.13;34.83;;;;;;;;;;4994199;28;20249;-88
2023/09/25 05:50:26;;;;;;;35.30;33.90;;;;;;;;;;4986836;28;20210;-89
2023/09/25 05:52:52;;;;;;;36.47;34.97;;;;;;;;;;4986844;28;20198;-89
2023/09/25 05:55:18;;;;;;;35.67;34.37;;;;;;;;;;4992805;28;20234;-90
2023/09/25 05:57:45;;;;;;;36.33;34.83;;;;;;;;;;4990767;28;20214;-88
2023/09/25 06:00:12;;;;;;;35.50;33.80;;;;;;;;;;4988307;28;20269;-88
2023/09/25 06:02:41;;;;;;;41.93;40.37;;;;;;;;;;4992372;28;20214;-89
2023/09/25 06:05:07;;;;;;;33.67;32.27;;;;;;;;;;4993055;28;20183;-89
2023/09/25 06:07:35;;;;;;;35.33;33.83;;;;;;;;;;4992728;28;20204;-89
2023/09/25 06:10:01;;;;;;;33.63;32.23;;;;;;;;;;4990541;28;20205;-88
2023/09/25 06:12:27;;;;;;;36.27;34.73;;;;;;;;;;4993027;28;20712;-89
2023/09/25 06:14:53;;;;;;;33.07;31.70;;;;;;;;;;4992667;28;20198;-89
2023/09/25 06:17:19;;;;;;;35.03;33.60;;;;;;;;;;4988541;28;20269;-87
2023/09/25 06:19:45;;;;;;;35.30;33.93;;;;;;;;;;4989452;28;20241;-90
2023/09/25 06:22:12;;;;;;;34.03;32.50;;;;;;;;;;4993196;28;20194;-89
2023/09/25 06:24:38;;;;;;;35.27;33.77;;;;;;;;;;4988246;28;20896;-88
2023/09/25 06:27:04;;;;;;;35.57;34.27;;;;;;;;;;4993566;28;20186;-86
2023/09/25 06:29:33;;;;;;;32.37;30.97;;;;;;;;;;5010918;28;20478;-88
2023/09/25 06:31:59;;;;;;;35.43;33.83;;;;;;;;;;5014991;28;20723;-89
2023/09/25 06:34:25;;;;;;;34.43;32.93;;;;;;;;;;4997246;28;20190;-88
2023/09/25 06:36:51;;;;;;;36.93;35.37;;;;;;;;;;4978813;28;20728;-89
2023/09/25 06:39:17;;;;;;;36.00;33.97;;;;;;;;;;4997297;28;20183;-89
2023/09/25 06:41:43;;;;;;;37.03;35.13;;;;;;;;;;5001315;28;20665;-91
2023/09/25 06:44:09;;;;;;;39.60;38.00;;;;;;;;;;5002587;28;20200;-90
2023/09/25 06:46:36;;;;;;;35.43;33.97;;;;;;;;;;5001634;28;20193;-91
2023/09/25 06:49:03;;;;;;;35.90;34.23;;;;;;;;;;5004718;28;20249;-91
2023/09/25 06:51:29;;;;;;;36.40;34.70;;;;;;;;;;5020919;28;20220;-91
2023/09/25 06:53:56;;;;;;;38.40;37.00;;;;;;;;;;5009345;28;20195;-89
2023/09/25 06:56:22;;;;;;;37.03;35.63;;;;;;;;;;4983839;28;20183;-91
2023/09/25 06:58:48;;;;;;;38.77;37.10;;;;;;;;;;5000405;28;20188;-91
2023/09/25 07:01:14;;;;;;;37.53;35.93;;;;;;;;;;5001346;28;20215;-91
2023/09/25 07:03:40;;;;;;;38.83;37.43;;;;;;;;;;5017781;28;20192;-94
2023/09/25 07:06:07;;;;;;;40.30;38.33;;;;;;;;;;5019699;28;20216;-94
2023/09/25 07:08:33;;;;;;;42.07;40.47;;;;;;;;;;5032051;28;20207;-93
2023/09/25 07:10:59;;;;;;;44.93;43.23;;;;;;;;;;5018776;28;20217;-93
2023/09/25 07:13:25;;;;;;;45.23;43.63;;;;;;;;;;5027361;28;20216;-92
2023/09/25 07:15:52;;;;;;;49.73;47.73;;;;;;;;;;5023731;28;20248;-93
2023/09/25 07:18:18;;;;;;;47.77;45.87;;;;;;;;;;5029457;28;20245;-91
2023/09/25 07:20:45;;;;;;;49.43;47.53;;;;;;;;;;5003534;28;20204;-91
2023/09/25 07:23:11;;;;;;;44.77;43.07;;;;;;;;;;5006496;28;20192;-90
2023/09/25 07:25:38;;;;;;;43.17;41.30;;;;;;;;;;4983720;28;20196;-91
2023/09/25 07:28:04;;;;;;;44.53;42.93;;;;;;;;;;5001107;28;20180;-90
2023/09/25 07:30:30;;;;;;;46.47;44.80;;;;;;;;;;5000072;28;20201;-92
2023/09/25 07:32:56;;;;;;;46.07;44.40;;;;;;;;;;4999515;28;20217;-90
2023/09/25 07:35:22;;;;;;;48.63;46.53;;;;;;;;;;4983507;28;20189;-91
2023/09/25 07:37:48;;;;;;;46.53;44.83;;;;;;;;;;4982200;28;20189;-90
2023/09/25 07:40:15;;;;;;;47.20;45.50;;;;;;;;;;4982472;28;20200;-90
2023/09/25 07:42:42;;;;;;;47.47;45.67;;;;;;;;;;4989520;28;20192;-90
2023/09/25 07:45:22;;;;;;;49.17;47.07;;;;;;;;;;4999959;28;20219;-91
2023/09/25 07:47:48;;;;;;;41.10;39.57;;;;;;;;;;5000919;28;20275;-91
2023/09/25 07:50:14;;;;;;;41.27;39.53;;;;;;;;;;5007152;28;20201;-91
2023/09/25 07:52:42;;;;;;;43.93;42.23;;;;;;;;;;5006889;28;20212;-89
2023/09/25 07:55:11;;;;;;;42.90;41.30;;;;;;;;;;5015860;28;20203;-91
2023/09/25 07:57:44;;;;;;;42.60;41.00;;;;;;;;;;5005383;28;20185;-90
2023/09/25 08:02:47;;;;;;;43.87;41.80;;;;;;;;;;5019855;28;20255;-90
2023/09/25 08:05:14;;;;;;;43.57;41.97;;;;;;;;;;5020834;28;20196;-90
2023/09/25 08:07:40;;;;;;;44.93;43.23;;;;;;;;;;5010004;28;20190;-90
2023/09/25 08:10:06;;;;;;;45.77;43.90;;;;;;;;;;4998003;28;20208;-90
2023/09/25 08:12:32;;;;;;;48.33;46.43;;;;;;;;;;5004587;28;20229;-90
2023/09/25 08:14:58;;;;;;;45.70;44.00;;;;;;;;;;4990864;28;20248;-92
2023/09/25 08:17:24;;;;;;;45.93;44.13;;;;;;;;;;5007567;28;20284;-90
2023/09/25 08:19:53;;;;;;;44.27;42.47;;;;;;;;;;5005286;28;20207;-91
2023/09/25 08:22:20;;;;;;;43.27;41.70;;;;;;;;;;5003452;28;20186;-90
2023/09/25 08:24:46;;;;;;;43.77;42.07;;;;;;;;;;5007348;28;20189;-90
2023/09/25 08:27:13;;;;;;;41.23;39.40;;;;;;;;;;5003190;28;20285;-91
2023/09/25 08:29:39;;;;;;;42.00;40.27;;;;;;;;;;5006906;28;20222;-89
2023/09/25 08:32:05;;;;;;;41.57;40.00;;;;;;;;;;5011578;28;20201;-91
2023/09/25 08:34:31;;;;;;;41.73;40.23;;;;;;;;;;5012983;28;20281;-91
2023/09/25 08:36:57;;;;;;;41.97;40.53;;;;;;;;;;5007818;28;20666;-91
2023/09/25 08:39:23;;;;;;;88.80;85.60;;;;;;;;;;5000687;28;20270;-90
2023/09/25 08:41:49;;;;;;;41.73;39.87;;;;;;;;;;4995152;28;20192;-90
2023/09/25 08:44:16;;;;;;;42.90;41.10;;;;;;;;;;5013394;28;20211;-90
2023/09/25 08:46:42;;;;;;;40.63;38.90;;;;;;;;;;5000923;28;20210;-91
2023/09/25 08:49:08;;;;;;;42.63;40.93;;;;;;;;;;4996241;28;20195;-89
2023/09/25 08:51:35;;;;;;;41.90;40.27;;;;;;;;;;4996770;28;20265;-91
2023/09/25 08:54:04;;;;;;;42.63;41.03;;;;;;;;;;5004200;28;20278;-91
2023/09/25 08:56:32;;;;;;;43.43;41.63;;;;;;;;;;4997084;28;20189;-92
2023/09/25 08:59:00;;;;;;;46.13;44.37;;;;;;;;;;4996690;28;20316;-91
2023/09/25 09:01:27;;;;;;;42.97;41.27;;;;;;;;;;5002672;28;20291;-89
2023/09/25 09:03:53;;;;;;;47.80;45.50;;;;;;;;;;5002060;28;20213;-88
2023/09/25 09:06:19;;;;;;;43.83;41.83;;;;;;;;;;4996498;28;20201;-91
2023/09/25 09:08:47;;;;;;;47.03;44.97;;;;;;;;;;5009958;28;20277;-91
2023/09/25 09:11:13;;;;;;;46.40;44.60;;;;;;;;;;5001904;28;20225;-91
2023/09/25 09:13:47;;;;;;;48.30;46.23;;;;;;;;;;5007385;28;20212;-91
2023/09/25 09:16:13;;;;;;;50.67;48.87;;;;;;;;;;4986733;28;20292;-91
2023/09/25 09:18:40;;;;;;;58.87;56.67;;;;;;;;;;5004466;28;20247;-91
2023/09/25 09:21:08;;;;;;;61.93;59.27;;;;;;;;;;5008050;28;20209;-93
2023/09/25 09:23:42;;;;;;;60.13;57.90;;;;;;;;;;5007542;28;20196;-89
2023/09/25 09:26:13;;;;;;;61.73;59.53;;;;;;;;;;4998198;28;20184;-90
2023/09/25 09:28:41;;;;;;;66.53;63.93;;;;;;;;;;5006748;28;20265;-91
2023/09/25 09:31:07;;;;;;;66.37;63.83;;;;;;;;;;5004383;28;20913;-89
2023/09/25 09:33:36;;;;;;;66.53;64.23;;;;;;;;;;5019793;28;20651;-91
2023/09/25 09:36:02;;;;;;;70.87;68.27;;;;;;;;;;5014627;28;20193;-88
2023/09/25 09:38:28;;;;;;;64.97;62.37;;;;;;;;;;5006497;28;20195;-92
2023/09/25 09:40:55;;;;;;;63.03;60.93;;;;;;;;;;5006983;28;20239;-90
2023/09/25 09:43:22;;;;;;;65.57;63.37;;;;;;;;;;5004454;28;20239;-92
2023/09/25 09:45:50;;;;;;;64.63;62.23;;;;;;;;;;5000307;28;20196;-91
2023/09/25 09:48:17;;;;;;;63.27;60.77;;;;;;;;;;5006206;28;20692;-91
2023/09/25 09:50:45;;;;;;;57.97;55.97;;;;;;;;;;5011159;28;20212;-89
2023/09/25 09:53:12;;;;;;;58.45;56.15;;;;;;;;;;5012314;28;20534;-91
2023/09/25 09:55:39;;;;;;;61.25;59.05;;;;;;;;;;5002473;28;20211;-92
2023/09/25 09:58:05;;;;;;;61.50;59.20;;;;;;;;;;4983150;28;20217;-90
2023/09/25 10:00:32;;;;;;;59.95;57.75;;;;;;;;;;5000547;28;20194;-92
2023/09/25 10:02:58;;;;;;;63.67;61.50;;;;;;;;;;5001908;28;20205;-92
2023/09/25 10:05:24;;;;;;;65.32;63.05;;;;;;;;;;5001548;28;20186;-91
2023/09/25 10:08:05;;;;;;;63.88;61.60;;;;;;;;;;4999340;28;20189;-92
2023/09/25 10:10:32;;;;;;;63.05;60.75;;;;;;;;;;5009328;28;20210;-89
2023/09/25 10:12:58;;;;;;;63.22;61.08;;;;;;;;;;5005075;28;20220;-91
2023/09/25 10:15:28;;;;;;;58.25;55.78;;;;;;;;;;5005000;28;20268;-89
2023/09/25 10:17:56;;;;;;;62.03;59.85;;;;;;;;;;5000509;28;20186;-90
2023/09/25 10:20:33;;;;;;;64.00;61.80;;;;;;;;;;5007625;28;20207;-91
2023/09/25 10:23:05;;;;;;;67.55;64.75;;;;;;;;;;5004234;28;20234;-91
2023/09/25 10:25:32;;;;;;;66.43;64.05;;;;;;;;;;5018691;28;20190;-91
2023/09/25 10:27:58;;;;;;;66.38;64.18;;;;;;;;;;4981562;28;20675;-92
2023/09/25 10:30:25;;;;;;;66.85;64.45;;;;;;;;;;5005269;28;20260;-92
2023/09/25 10:32:52;;;;;;;83.63;80.78;;;;;;;;;;5007448;28;20210;-90
2023/09/25 10:35:37;;;;;;;75.93;73.53;;;;;;;;;;4997282;28;20186;-91
2023/09/25 10:38:10;;;;;;;70.72;68.43;;;;;;;;;;5004123;28;20834;-91
2023/09/25 10:40:37;;;;;;;86.88;84.07;;;;;;;;;;5020915;28;20201;-92
2023/09/25 10:43:03;;;;;;;83.55;80.82;;;;;;;;;;5015862;28;20178;-92
2023/09/25 10:45:29;;;;;;;100.00;96.85;;;;;;;;;;4999808;28;20193;-90
2023/09/25 10:47:56;;;;;;;90.80;87.78;;;;;;;;;;4998974;28;20186;-91
2023/09/25 10:50:22;;;;;;;99.53;96.30;;;;;;;;;;4998876;28;20212;-91
2023/09/25 10:52:48;;;;;;;90.80;87.90;;;;;;;;;;5010698;28;20249;-93
2023/09/25 10:55:14;;;;;;;86.57;83.80;;;;;;;;;;5003934;28;20182;-92
2023/09/25 10:57:40;;;;;;;1999.90;999.90;;;;;;;;;;5004756;28;20542;-92
2023/09/25 11:00:14;;;;;;;1999.90;999.90;;;;;;;;;;5002180;28;20352;-93
2023/09/25 11:02:40;;;;;;;1999.90;999.90;;;;;;;;;;5004564;28;20225;-89
2023/09/25 11:05:07;;;;;;;1999.90;999.90;;;;;;;;;;5001076;28;20186;-89
2023/09/25 11:07:38;;;;;;;1999.90;999.90;;;;;;;;;;4999820;28;20186;-91
2023/09/25 11:10:04;;;;;;;1999.90;999.90;;;;;;;;;;5000047;28;20278;-91
2023/09/25 11:12:31;;;;;;;1999.90;999.90;;;;;;;;;;5005258;28;20263;-92
2023/09/25 11:14:57;;;;;;;1999.90;999.90;;;;;;;;;;5010570;28;20217;-92
2023/09/25 11:17:24;;;;;;;1999.90;999.90;;;;;;;;;;5013110;28;20273;-92
2023/09/25 11:19:52;;;;;;;1999.90;999.90;;;;;;;;;;5005079;28;20825;-92
2023/09/25 11:22:22;;;;;;;1999.90;999.90;;;;;;;;;;5000400;28;20261;-91
2023/09/25 11:24:54;;;;;;;1999.90;999.90;;;;;;;;;;4999004;28;20187;-93
2023/09/25 11:27:21;;;;;;;1999.90;999.90;;;;;;;;;;5000183;28;20287;-93
2023/09/25 11:29:50;;;;;;;1999.90;999.90;;;;;;;;;;5010065;28;20691;-93
2023/09/25 11:32:17;;;;;;;1999.90;999.90;;;;;;;;;;5017890;28;20209;-92
2023/09/25 11:34:47;;;;;;;1999.90;999.90;;;;;;;;;;5009236;28;20269;-94
2023/09/25 11:37:20;;;;;;;1999.90;999.90;;;;;;;;;;5009136;28;20174;-92
2023/09/25 11:39:46;;;;;;;1999.90;999.90;;;;;;;;;;5008880;28;20264;-91
2023/09/25 11:42:12;;;;;;;1999.90;999.90;;;;;;;;;;5000385;28;20203;-93
2023/09/25 11:44:38;;;;;;;1999.90;999.90;;;;;;;;;;4999395;28;20704;-91
2023/09/25 11:47:07;;;;;;;1999.90;999.90;;;;;;;;;;4999145;28;20696;-93
2023/09/25 11:49:33;;;;;;;1999.90;999.90;;;;;;;;;;5000053;28;20182;-92
2023/09/25 11:51:59;;;;;;;1999.90;999.90;;;;;;;;;;4998941;28;20708;-90
2023/09/25 11:54:26;;;;;;;1999.90;999.90;;;;;;;;;;4999316;28;20186;-91
2023/09/25 11:56:52;;;;;;;1999.90;999.90;;;;;;;;;;5002141;28;20664;-91
2023/09/25 11:59:18;;;;;;;1999.90;999.90;;;;;;;;;;5000970;28;20185;-92
2023/09/25 12:01:45;;;;;;;1999.90;999.90;;;;;;;;;;5000027;28;20214;-92
2023/09/25 12:04:12;;;;;;;1999.90;999.90;;;;;;;;;;4998844;28;20598;-92
2023/09/25 12:06:39;;;;;;;1999.90;999.90;;;;;;;;;;5005850;28;20671;-90
2023/09/25 12:09:11;;;;;;;1999.90;999.90;;;;;;;;;;5012162;28;20743;-92
2023/09/25 12:11:41;;;;;;;1999.90;999.90;;;;;;;;;;5008978;28;20221;-92
2023/09/25 12:14:08;;;;;;;1999.90;999.90;;;;;;;;;;5019261;28;20201;-92
2023/09/25 12:16:34;;;;;;;1999.90;999.90;;;;;;;;;;5017048;28;20186;-93
2023/09/25 12:19:00;;;;;;;1999.90;999.90;;;;;;;;;;5005609;28;20182;-90
2023/09/25 12:21:27;;;;;;;1999.90;999.90;;;;;;;;;;5004364;28;20317;-90
2023/09/25 12:23:52;;;;;;;1999.90;999.90;;;;;;;;;;5017329;28;20186;-92
2023/09/25 12:26:19;;;;;;;1999.90;999.90;;;;;;;;;;5003790;28;20189;-92
2023/09/25 12:28:45;;;;;;;1999.90;999.90;;;;;;;;;;4997862;28;20182;-92
2023/09/25 12:31:11;;;;;;;1999.90;999.90;;;;;;;;;;4999901;28;20232;-92
2023/09/25 12:33:37;;;;;;;1999.90;999.90;;;;;;;;;;5001112;28;20197;-90
2023/09/25 12:36:03;;;;;;;1999.90;999.90;;;;;;;;;;5012767;28;20190;-93
2023/09/25 12:38:29;;;;;;;1999.90;999.90;;;;;;;;;;5019497;28;20197;-92
2023/09/25 12:40:55;;;;;;;1999.90;999.90;;;;;;;;;;5017628;28;20270;-90
2023/09/25 12:43:21;;;;;;;1999.90;999.90;;;;;;;;;;5007563;28;20556;-92
2023/09/25 12:45:47;;;;;;;1999.90;999.90;;;;;;;;;;4998920;28;20285;-92
2023/09/25 12:48:13;;;;;;;1999.90;999.90;;;;;;;;;;5004028;28;20264;-92
2023/09/25 12:50:39;;;;;;;1999.90;999.90;;;;;;;;;;5017546;28;20699;-93
2023/09/25 12:53:05;;;;;;;1999.90;999.90;;;;;;;;;;5011612;28;20194;-92
2023/09/25 12:55:33;;;;;;;1999.90;999.90;;;;;;;;;;5003033;28;20249;-91
2023/09/25 12:57:59;;;;;;;1999.90;999.90;;;;;;;;;;5014788;28;20186;-93
2023/09/25 13:00:25;;;;;;;1999.90;999.90;;;;;;;;;;4998867;28;20761;-93
2023/09/25 13:02:52;;;;;;;1999.90;999.90;;;;;;;;;;5009528;28;20178;-93
2023/09/25 13:05:18;;;;;;;1999.90;999.90;;;;;;;;;;5016489;28;20388;-91
2023/09/25 13:07:44;;;;;;;1999.90;999.90;;;;;;;;;;5015764;28;20181;-92
2023/09/25 13:10:12;;;;;;;1999.90;999.90;;;;;;;;;;5016803;28;20205;-91
2023/09/25 13:12:39;;;;;;;1999.90;999.90;;;;;;;;;;5012533;28;20215;-91
2023/09/25 13:15:06;;;;;;;1999.90;999.90;;;;;;;;;;4996542;28;20228;-93
2023/09/25 13:17:32;;;;;;;1999.90;999.90;;;;;;;;;;5012675;28;20200;-93
2023/09/25 13:20:07;;;;;;;1999.90;999.90;;;;;;;;;;5015380;28;20205;-92
2023/09/25 13:22:37;;;;;;;1999.90;999.90;;;;;;;;;;5001160;28;20212;-93
2023/09/25 13:25:04;;;;;;;1999.90;999.90;;;;;;;;;;5009790;28;20258;-92
2023/09/25 13:27:30;;;;;;;1999.90;999.90;;;;;;;;;;5010072;28;20193;-91
2023/09/25 13:29:56;;;;;;;1999.90;999.90;;;;;;;;;;4998144;28;20214;-91
2023/09/25 13:32:22;;;;;;;1999.90;999.90;;;;;;;;;;4996625;28;20214;-90
2023/09/25 13:34:48;;;;;;;1999.90;999.90;;;;;;;;;;4995563;28;20182;-91
2023/09/25 13:37:14;;;;;;;1999.90;999.90;;;;;;;;;;4997780;28;20189;-89
2023/09/25 13:39:40;;;;;;;1999.90;999.90;;;;;;;;;;4996930;28;20212;-91
2023/09/25 13:42:06;;;;;;;1999.90;999.90;;;;;;;;;;5001025;28;20593;-90
2023/09/25 13:44:33;;;;;;;1999.90;999.90;;;;;;;;;;4995397;28;20186;-90
2023/09/25 13:46:59;;;;;;;1999.90;999.90;;;;;;;;;;4998984;28;20193;-89
2023/09/25 13:49:26;;;;;;;1999.90;999.90;;;;;;;;;;5006756;28;20193;-89
2023/09/25 13:51:52;;;;;;;1999.90;999.90;;;;;;;;;;5003756;28;20217;-90
2023/09/25 13:54:18;;;;;;;1999.90;999.90;;;;;;;;;;4999990;28;20179;-90
2023/09/25 13:56:44;;;;;;;1999.90;999.90;;;;;;;;;;5015241;28;20741;-90
2023/09/25 13:59:10;;;;;;;1999.90;999.90;;;;;;;;;;5003354;28;20241;-92
2023/09/25 14:01:36;;;;;;;1999.90;999.90;;;;;;;;;;4999891;28;20241;-90
2023/09/25 14:04:02;;;;;;;1999.90;999.90;;;;;;;;;;5010190;28;20196;-90
2023/09/25 14:06:30;;;;;;;1999.90;999.90;;;;;;;;;;4988242;28;20205;-89
2023/09/25 14:08:56;;;;;;;1999.90;999.90;;;;;;;;;;4987846;28;20174;-90